Gesves - Hors Challenge

Le trail des carrières à Gesves (21.00 km)

Classement complet

Le Classement original se trouve sur : http://www.chronorace.be        
 
LE TRAIL DES CARRIÈRES - GESVES
DISTANCE : 21.00 km
dimanche 16 avril 2017
 
Place Dos NOM Equipe Catégorie Pl/cat temps temps/km Vitesse
1 230 MATHIEUX CEDRIC ENTRPARENTHESES SH 1 1:34:30 04:30 13.33
2 258 LEFEVRE AURELIEN   SH 2 1:39:51 04:45 12.62
3 283 BROSSARD ERIC   V1 1 1:41:18 04:49 12.44
4 228 LAURENT DAMIEN RUNNING+ SH 3 1:45:23 05:01 11.96
5 240 LAMBERT STEFAN   V2 1 1:46:30 05:04 11.83
6 273 NUTTIN JULIEN   SH 4 1:51:49 05:19 11.27
7 261 PELTIER MATTHIEU   SH 5 1:51:53 05:20 11.26
8 262 RULLENS ADRIEN   SH 6 1:54:58 05:28 10.96
9 211 DEBAY BLAISE BLAISE DEBAY V1 2 1:55:34 05:30 10.90
10 241 DERAVET BERNARD   V2 2 1:57:25 05:35 10.73
11 268 PISSENS JEREMY   SH 7 1:57:46 05:36 10.70
12 274 OGER BENJAMIN   SH 8 1:58:04 05:37 10.67
13 256 MORTEHAN JULIEN   SH 9 1:59:18 05:41 10.56
14 204 CHEVALIER FABIAN LES MOTIVÉS DE SH 10 1:59:40 05:42 10.53
15 284 MALENGREAUX BENJAMIN   SH 11 2:00:10 05:43 10.49
16 232 MEDA BENJAMIN   SH 12 2:01:09 05:46 10.40
17 203 CHARLOT MICHAËL MICHAËL CHARLOT V1 3 2:01:31 05:47 10.37
18 245 SCHOUMACKERS BENOIT   V1 4 2:02:20 05:50 10.30
19 260 DUPONT JEREMIE   SH 13 2:03:26 05:53 10.21
20 277 GAMMIZ MIGUEL   SH 14 2:03:53 05:54 10.17
21 278 LEDURE MATHIEU   SH 15 2:04:36 05:56 10.11
22 216 DEWAEL YANNICK 2BETRAIL V1 5 2:05:30 05:59 10.04
23 221 GAROT CHARLES RUNNING FERNELM SH 16 2:05:48 05:59 10.02
24 253 DEPREZ NICOLAS   V1 6 2:05:59 06:00 10.00
25 224 HANQUET AXEL RONVAU SH 17 2:06:11 06:01 9.99
26 271 BOQUE DIDIER   V2 3 2:07:00 06:03 9.92
27 257 BAILLY JEAN-LUC   V1 7 2:07:26 06:04 9.89
28 217 DUBASIN KEVIN   SH 18 2:08:10 06:06 9.83
29 269 BASTIEN GUILLAUME   V1 8 2:08:21 06:07 9.82
30 201 BOUCHER PHILIPPE   SH 19 2:09:11 06:09 9.75
31 115 VANDERCLAUSEN LOIC VINCENT DESWAEF SH 20 2:09:12 06:09 9.75
32 275 GREMES THOMAS   SH 21 2:09:18 06:09 9.74
33 249 PIRONT FREDDY   V1 9 2:09:21 06:10 9.74
34 267 JAUMOTTE CHRISTOPHE   SH 22 2:09:30 06:10 9.73
35 202 BOURGUIGNON ANTOINE MJC SH 23 2:09:32 06:10 9.73
36 207 CORDIER NICOLAS RUNNIN'GREZ SH 24 2:09:32 06:10 9.73
37 282 HUET EMMANUEL   V1 10 2:10:36 06:13 9.65
38 243 BOONE FRANCOIS MY RUN V1 11 2:11:17 06:15 9.60
39 222 GEORGES BENOIT HLR SH 25 2:11:43 06:16 9.57
40 223 GERARD DIDJÊ SPONTIN RUN V1 12 2:11:44 06:16 9.56
41 231 MAZUIN KEVIN   SH 26 2:12:25 06:18 9.52
42 285 KUYPERS CHRISTOPHE   V1 13 2:13:10 06:20 9.46
43 234 PIREAUX THOMAS   SH 27 2:13:36 06:22 9.43
44 259 JACQMIN NATHANAEL   V2 4 2:13:55 06:23 9.41
45 225 HUBEAUX VINCENT GAG GEMBLOUX V1 14 2:13:55 06:23 9.41
46 206 CHILIADE LUIGI   V1 15 2:14:00 06:23 9.40
47 238 MEUWIS FREDERIC   V1 16 2:14:17 06:24 9.38
48 244 NEMERY GERALDINE MY RUN SD 1 2:14:18 06:24 9.38
49 213 DELENS FRÉDÉRIC   V1 17 2:15:42 06:28 9.29
50 270 WAMICHET GREGORY   SH 28 2:17:33 06:33 9.16
51 255 BEAURANG PIERRE-YVAN   SH 29 2:20:02 06:40 9.00
52 215 DESWAEF VINCENT VINCENT DESWAEF SH 30 2:21:01 06:43 8.94
53 212 DE GUCHTENAERE TIM BOZZERS! SH 31 2:21:19 06:44 8.92
54 263 MAQUET JORDAN   SH 32 2:22:52 06:48 8.82
55 208 CRETELEINE ROLAND LES MOTIVÉS DE V2 5 2:23:48 06:51 8.76
56 239 MERCIER DOMINIQUE   V2 6 2:27:21 07:01 8.55
57 248 LEBRUN EMMANUEL   V1 18 2:27:52 07:02 8.52
58 237 VERCAUTEREN BERTRAND SMAC V2 7 2:28:30 07:04 8.48
59 252 NAUTS THIERRY   SH 33 2:28:48 07:05 8.47
60 247 TORDOIR NOEMIE   SD 2 2:33:11 07:18 8.23
61 246 TORDOIR ERIC   V2 8 2:33:12 07:18 8.22
62 242 VAN PEE JOHAN   V1 19 2:35:37 07:25 8.10
63 254 FRANCE PIERRE-HENRY   SH 34 2:35:47 07:25 8.09
64 286 LEGAT CORENTIN   SH 35 2:36:11 07:26 8.07
65 226 JORDANT BENOIT   V2 9 2:38:25 07:33 7.95
66 264 STERCKX ALEXANDRE   SH 36 2:39:51 07:37 7.88
67 209 DAMAR ANNE-CÉCILE   A1 1 2:40:10 07:38 7.87
68 218 FABRY STÉPHANIE MY RUN SD 3 2:40:10 07:38 7.87
69 227 LATIERS MÉLANIE TEAM MY RUN SD 4 2:40:10 07:38 7.87
70 233 NIJS CHRIS   V1 20 2:44:32 07:50 7.66
71 219 FRANÇOIS ISABELLE   A1 2 2:44:32 07:50 7.66
72 210 DARDENNE JONATHAN JONATHAN DARDEN SH 37 2:44:38 07:50 7.65
73 281 DELPERDANGE PATRICK   V2 10 2:45:06 07:52 7.63
74 265 VERHAEGHE ALINE   SD 5 2:46:12 07:55 7.58
75 272 DECLERCQ SAMUEL   SH 38 2:46:15 07:55 7.58
76 250 DUTERME ANDRE   V2 11 2:46:30 07:56 7.57
77 251 HENRY CHRISTOPHE   V1 21 2:46:53 07:57 7.55
78 236 HOUTHOOFDT NATHALIE   A1 3 2:48:05 08:00 7.50
79 279 HALLEUX CHRISTIAN   V3 1 2:52:34 08:13 7.30
80 287 MUYS CELINE   SD 6 2:54:05 08:17 7.24
81 235 POURIGNAUX YVES   V1 22 2:55:32 08:22 7.18
82 280 JACQUEMIN SABINE   A2 1 3:17:21 09:24 6.38